Time;durP1;ratioP1;P1;durP2;ratioP2;P2;SDS_P1;SDS_P2;PMS_P1;PMS_P2;Temp;Humidity;BMP_temperature;BMP_pressure;BME280_temperature;BME280_humidity;BME280_pressure;Samples;Min_cycle;Max_cycle;Signal;HPM_P1;HPM_P2
2021/04/19 00:00:14;;;;;;;11.20;5.07;;;;;;;18.66;49.17;101681.50;487292;28;831;-65
2021/04/19 00:00:28;;;;;;;9.73;5.03;;;;;;;18.66;49.36;101681.50;487449;28;934;-65
2021/04/19 00:00:43;;;;;;;9.23;5.15;;;;;;;18.67;48.98;101677.78;487367;28;831;-65
2021/04/19 00:00:57;;;;;;;9.20;5.33;;;;;;;18.66;48.79;101678.78;487337;28;799;-65
2021/04/19 00:01:12;;;;;;;10.52;5.22;;;;;;;18.66;49.14;101676.09;487541;28;856;-65
2021/04/19 00:01:26;;;;;;;10.37;4.90;;;;;;;18.66;48.97;101681.50;487527;28;864;-65
2021/04/19 00:01:40;;;;;;;9.60;4.83;;;;;;;18.67;48.97;101679.63;487138;28;1105;-65
2021/04/19 00:01:55;;;;;;;10.32;5.03;;;;;;;18.67;49.05;101676.94;487474;28;978;-65
2021/04/19 00:02:09;;;;;;;9.77;5.20;;;;;;;18.67;49.39;101676.94;487555;28;839;-65
2021/04/19 00:02:24;;;;;;;9.80;5.20;;;;;;;18.66;49.11;101670.66;487475;28;1057;-65
2021/04/19 00:02:39;;;;;;;11.17;5.00;;;;;;;18.67;49.12;101677.78;487662;28;961;-65
2021/04/19 00:02:53;;;;;;;10.23;5.05;;;;;;;18.68;49.32;101681.34;487449;28;966;-65
2021/04/19 00:03:08;;;;;;;10.38;5.13;;;;;;;18.68;48.95;101676.75;487543;28;926;-65
2021/04/19 00:03:22;;;;;;;9.07;4.77;;;;;;;18.68;49.29;101675.91;487494;28;1020;-65
2021/04/19 00:03:37;;;;;;;8.07;4.82;;;;;;;18.67;49.31;101682.34;487607;28;877;-65
2021/04/19 00:03:51;;;;;;;9.03;5.10;;;;;;;18.67;48.98;101674.22;487400;28;815;-65
2021/04/19 00:04:05;;;;;;;10.50;5.15;;;;;;;18.66;49.31;101673.38;487578;28;1005;-65
2021/04/19 00:04:20;;;;;;;9.93;5.10;;;;;;;18.66;49.31;101681.50;487534;28;1024;-65
2021/04/19 00:04:35;;;;;;;8.57;5.05;;;;;;;18.67;49.03;101671.50;487283;28;1013;-65
2021/04/19 00:04:50;;;;;;;10.45;5.18;;;;;;;18.67;49.18;101676.94;487195;28;858;-65
2021/04/19 00:05:10;;;;;;;10.73;5.15;;;;;;;18.66;49.27;101672.53;487227;28;911;-65
2021/04/19 00:05:25;;;;;;;8.23;4.82;;;;;;;18.67;49.24;101675.06;485266;28;65024;-65
2021/04/19 00:05:39;;;;;;;8.85;4.93;;;;;;;18.67;49.25;101674.22;487343;28;882;-64
2021/04/19 00:05:54;;;;;;;9.73;4.93;;;;;;;18.67;49.28;101679.63;487435;28;989;-64
2021/04/19 00:06:08;;;;;;;9.87;5.10;;;;;;;18.67;48.97;101675.06;487521;28;1037;-64
2021/04/19 00:06:22;;;;;;;9.43;5.07;;;;;;;18.66;49.02;101670.66;487476;28;1057;-64
2021/04/19 00:06:38;;;;;;;9.57;5.10;;;;;;;18.67;49.31;101676.94;487469;28;847;-64
2021/04/19 00:06:53;;;;;;;11.02;5.35;;;;;;;18.66;49.13;101665.22;487571;28;846;-64
2021/04/19 00:07:08;;;;;;;9.88;5.25;;;;;;;18.67;49.32;101668.78;487492;28;981;-64
2021/04/19 00:07:22;;;;;;;9.45;5.47;;;;;;;18.66;49.34;101677.94;487501;28;918;-64
2021/04/19 00:07:37;;;;;;;9.93;5.30;;;;;;;18.66;49.24;101677.94;487593;28;890;-64
2021/04/19 00:07:51;;;;;;;10.13;4.83;;;;;;;18.65;49.21;101668.97;487380;28;862;-64
2021/04/19 00:08:06;;;;;;;9.80;4.80;;;;;;;18.65;49.02;101674.38;487578;28;957;-64
2021/04/19 00:08:20;;;;;;;9.40;4.90;;;;;;;18.65;49.33;101676.25;487387;28;1348;-64
2021/04/19 00:08:35;;;;;;;9.23;4.97;;;;;;;18.64;49.04;101664.56;487553;28;855;-64
2021/04/19 00:08:49;;;;;;;10.20;5.07;;;;;;;18.65;49.06;101668.13;487384;28;894;-64
2021/04/19 00:09:04;;;;;;;9.57;4.90;;;;;;;18.65;49.08;101670.81;487253;28;918;-64
2021/04/19 00:09:18;;;;;;;8.57;4.90;;;;;;;18.64;48.92;101664.56;487624;28;913;-64
2021/04/19 00:09:34;;;;;;;9.07;5.10;;;;;;;18.64;48.53;101672.69;487487;28;965;-64
2021/04/19 00:09:49;;;;;;;9.38;5.00;;;;;;;18.63;49.30;101671.00;487438;28;938;-64
2021/04/19 00:10:05;;;;;;;9.48;4.88;;;;;;;18.64;49.15;101667.25;487547;28;953;-63
2021/04/19 00:10:21;;;;;;;10.60;5.05;;;;;;;18.64;49.42;101669.13;487434;28;930;-64
2021/04/19 00:10:36;;;;;;;10.32;4.97;;;;;;;18.64;49.00;101667.25;487453;28;1009;-64
2021/04/19 00:10:50;;;;;;;11.80;5.20;;;;;;;18.65;49.25;101673.53;487465;28;1040;-64
2021/04/19 00:11:05;;;;;;;11.20;5.28;;;;;;;18.64;49.02;101666.41;487525;28;918;-64
2021/04/19 00:11:19;;;;;;;8.20;4.90;;;;;;;18.63;49.07;101662.84;487508;28;993;-64
2021/04/19 00:11:34;;;;;;;9.25;4.75;;;;;;;18.63;49.18;101668.28;487524;28;969;-64
2021/04/19 00:11:49;;;;;;;11.05;4.93;;;;;;;18.64;49.23;101666.41;487538;28;974;-64
2021/04/19 00:12:05;;;;;;;9.87;5.17;;;;;;;18.64;49.10;101666.41;487417;28;890;-64
2021/04/19 00:12:19;;;;;;;8.65;5.13;;;;;;;18.64;49.38;101671.84;487459;28;1345;-64
2021/04/19 00:12:34;;;;;;;8.60;5.17;;;;;;;18.64;49.06;101666.41;487625;28;882;-64
2021/04/19 00:12:50;;;;;;;9.30;5.15;;;;;;;18.64;48.98;101666.41;487387;28;930;-64
2021/04/19 00:13:05;;;;;;;10.65;5.30;;;;;;;18.64;49.17;101671.84;487476;28;1016;-64
2021/04/19 00:13:19;;;;;;;10.83;5.23;;;;;;;18.64;49.40;101669.13;487634;28;799;-64
2021/04/19 00:13:33;;;;;;;10.00;5.00;;;;;;;18.63;48.93;101665.56;487460;28;1973;-64
2021/04/19 00:13:48;;;;;;;9.50;5.10;;;;;;;18.64;49.28;101669.13;487417;28;886;-64
2021/04/19 00:14:03;;;;;;;8.53;5.17;;;;;;;18.63;49.11;101668.28;487487;28;859;-64
2021/04/19 00:14:17;;;;;;;9.23;5.20;;;;;;;18.63;48.84;101670.16;487553;28;1108;-64
2021/04/19 00:14:32;;;;;;;10.43;5.27;;;;;;;18.64;49.16;101674.56;487587;28;819;-64
2021/04/19 00:14:46;;;;;;;10.23;5.40;;;;;;;18.64;49.27;101669.13;487508;28;858;-64
2021/04/19 00:15:04;;;;;;;9.60;5.30;;;;;;;18.63;48.95;101670.16;487461;28;821;-64
2021/04/19 00:15:20;;;;;;;9.73;4.95;;;;;;;18.63;49.11;101665.56;486812;28;18776;-64
2021/04/19 00:15:34;;;;;;;9.07;4.82;;;;;;;18.62;48.89;101673.91;487507;28;970;-64
2021/04/19 00:15:49;;;;;;;8.30;4.85;;;;;;;18.64;49.05;101669.13;487434;28;953;-64
2021/04/19 00:16:03;;;;;;;7.78;4.70;;;;;;;18.63;49.24;101668.28;487443;28;902;-64
2021/04/19 00:16:18;;;;;;;9.07;4.80;;;;;;;18.63;49.26;101662.00;487402;28;867;-64
2021/04/19 00:16:32;;;;;;;10.05;5.10;;;;;;;18.62;48.93;101665.78;487216;28;1138;-64
2021/04/19 00:16:47;;;;;;;10.03;5.17;;;;;;;18.63;49.05;101665.56;490849;28;1147;-64
2021/04/19 00:17:02;;;;;;;10.00;5.35;;;;;;;18.62;49.22;101657.63;491035;28;993;-64
2021/04/19 00:17:16;;;;;;;9.48;5.47;;;;;;;18.62;48.88;101653.03;491220;28;969;-64
2021/04/19 00:17:32;;;;;;;11.30;5.20;;;;;;;18.63;49.15;101667.44;491004;28;965;-64
2021/04/19 00:17:48;;;;;;;13.32;5.18;;;;;;;18.61;48.90;101664.91;491143;28;1080;-64
2021/04/19 00:18:02;;;;;;;10.23;5.10;;;;;;;18.63;49.22;101667.44;491203;28;978;-64
2021/04/19 00:18:17;;;;;;;9.13;4.93;;;;;;;18.62;49.11;101649.50;490896;28;1088;-64
2021/04/19 00:18:31;;;;;;;8.97;4.93;;;;;;;18.63;49.16;101662.84;491169;28;939;-64
2021/04/19 00:18:46;;;;;;;10.63;5.10;;;;;;;18.63;49.42;101652.00;488007;28;697;-64
2021/04/19 00:19:00;;;;;;;12.63;5.30;;;;;;;18.63;49.22;101659.28;487388;28;850;-64
2021/04/19 00:19:15;;;;;;;9.85;5.20;;;;;;;18.61;49.07;101656.78;489031;28;1076;-64
2021/04/19 00:19:29;;;;;;;8.43;5.10;;;;;;;18.61;48.52;101659.50;489494;28;835;-64
2021/04/19 00:19:43;;;;;;;8.83;4.97;;;;;;;18.63;49.18;101662.00;489382;28;874;-64
2021/04/19 00:19:58;;;;;;;8.85;5.10;;;;;;;18.64;49.00;101666.41;489027;28;1076;-64
2021/04/19 00:20:14;;;;;;;8.20;5.15;;;;;;;18.62;48.86;101660.34;489351;28;798;-64
2021/04/19 00:20:28;;;;;;;8.65;5.00;;;;;;;18.63;49.31;101668.28;489390;28;978;-64
2021/04/19 00:20:42;;;;;;;9.67;4.97;;;;;;;18.63;49.00;101659.28;488991;28;818;-64
2021/04/19 00:20:57;;;;;;;8.90;5.00;;;;;;;18.63;49.05;101662.84;489397;28;992;-64
2021/04/19 00:21:11;;;;;;;8.10;5.03;;;;;;;18.64;49.11;101664.56;489377;28;833;-64
2021/04/19 00:21:25;;;;;;;8.45;5.10;;;;;;;18.63;49.07;101664.72;489437;28;822;-64
2021/04/19 00:21:40;;;;;;;8.50;5.13;;;;;;;18.62;49.07;101663.88;489191;28;817;-64
2021/04/19 00:21:54;;;;;;;8.23;4.90;;;;;;;18.63;49.16;101659.28;489336;28;937;-64
2021/04/19 00:22:09;;;;;;;8.73;4.60;;;;;;;18.62;49.00;101661.16;489399;28;1000;-64
2021/04/19 00:22:23;;;;;;;9.03;4.87;;;;;;;18.64;49.17;101661.00;489199;28;908;-64
2021/04/19 00:22:38;;;;;;;8.48;5.00;;;;;;;18.63;49.08;101654.72;489376;28;803;-64
2021/04/19 00:22:52;;;;;;;8.32;5.13;;;;;;;18.63;49.33;101660.16;489440;28;1004;-64
2021/04/19 00:23:07;;;;;;;7.87;5.10;;;;;;;18.63;49.01;101652.00;489299;28;873;-64
2021/04/19 00:23:21;;;;;;;7.90;5.20;;;;;;;18.64;49.00;101661.00;489215;28;905;-64
2021/04/19 00:23:35;;;;;;;8.70;5.40;;;;;;;18.62;49.29;101652.22;489459;28;996;-63
2021/04/19 00:23:50;;;;;;;8.17;4.97;;;;;;;18.63;49.15;101659.28;489044;28;842;-64
2021/04/19 00:24:05;;;;;;;8.18;4.80;;;;;;;18.59;49.40;101653.38;489024;28;1265;-64
2021/04/19 00:24:20;;;;;;;8.27;4.93;;;;;;;18.61;49.30;101651.34;489444;28;881;-64
2021/04/19 00:24:34;;;;;;;8.18;5.13;;;;;;;18.63;49.21;101659.28;489451;28;881;-64
2021/04/19 00:24:48;;;;;;;9.50;5.27;;;;;;;18.61;49.29;101659.50;489161;28;865;-64
2021/04/19 00:25:04;;;;;;;9.37;5.13;;;;;;;18.61;49.29;101656.78;489517;28;861;-64
2021/04/19 00:25:18;;;;;;;8.45;5.03;;;;;;;18.63;49.05;101653.88;489050;28;933;-64
2021/04/19 00:25:32;;;;;;;9.13;5.00;;;;;;;18.61;49.28;101651.34;489317;28;862;-64
2021/04/19 00:25:47;;;;;;;9.80;5.13;;;;;;;18.62;49.41;101646.78;488999;28;826;-64
2021/04/19 00:26:01;;;;;;;9.93;5.30;;;;;;;18.60;49.22;101654.25;489184;28;862;-64
2021/04/19 00:26:15;;;;;;;9.07;5.23;;;;;;;18.61;49.04;101647.81;489215;28;822;-64
2021/04/19 00:26:30;;;;;;;9.57;5.53;;;;;;;18.61;49.14;101651.34;489187;28;1005;-64
2021/04/19 00:26:44;;;;;;;9.47;5.70;;;;;;;18.61;49.20;101650.50;489077;28;1443;-64
2021/04/19 00:26:58;;;;;;;8.97;5.53;;;;;;;18.60;49.14;101655.09;489310;28;893;-64
2021/04/19 00:27:13;;;;;;;7.97;5.00;;;;;;;18.62;49.15;101652.22;489179;28;853;-64
2021/04/19 00:27:27;;;;;;;8.33;5.00;;;;;;;18.61;48.93;101656.78;488848;28;1804;-64
2021/04/19 00:27:42;;;;;;;8.57;5.07;;;;;;;18.60;49.20;101655.09;489154;28;1599;-64
2021/04/19 00:27:56;;;;;;;8.10;5.17;;;;;;;18.61;49.29;101653.22;489080;28;852;-63
2021/04/19 00:28:11;;;;;;;8.85;5.40;;;;;;;18.60;49.27;101649.66;488963;28;845;-64
2021/04/19 00:28:25;;;;;;;8.87;5.20;;;;;;;18.60;48.97;101646.94;489236;28;905;-64
2021/04/19 00:28:40;;;;;;;8.80;5.13;;;;;;;18.61;49.18;101650.50;489201;28;822;-64
2021/04/19 00:28:54;;;;;;;9.53;5.10;;;;;;;18.61;49.18;101647.81;489074;28;815;-64
2021/04/19 00:29:09;;;;;;;10.02;5.18;;;;;;;18.61;49.29;101658.66;489196;28;910;-64
2021/04/19 00:29:23;;;;;;;9.57;5.30;;;;;;;18.60;48.81;101654.25;489191;28;865;-64
2021/04/19 00:29:38;;;;;;;8.98;5.18;;;;;;;18.60;49.28;101655.09;489196;28;997;-64
2021/04/19 00:29:52;;;;;;;8.60;5.00;;;;;;;18.60;49.28;101646.09;489184;28;889;-64
2021/04/19 00:30:07;;;;;;;8.85;5.05;;;;;;;18.60;49.19;101655.09;489461;28;1024;-64
2021/04/19 00:30:22;;;;;;;9.75;5.28;;;;;;;18.59;49.04;101647.97;489313;28;834;-64
2021/04/19 00:30:36;;;;;;;9.50;5.40;;;;;;;18.60;49.21;101646.09;489145;28;957;-64
2021/04/19 00:30:51;;;;;;;8.97;5.50;;;;;;;18.59;49.12;101645.25;489381;28;957;-64
2021/04/19 00:31:06;;;;;;;9.43;5.40;;;;;;;18.59;49.10;101642.53;489273;28;838;-64
2021/04/19 00:31:21;;;;;;;10.07;5.25;;;;;;;18.59;49.06;101645.25;488947;28;988;-64
2021/04/19 00:31:35;;;;;;;10.13;5.27;;;;;;;18.59;49.12;101653.38;487429;28;854;-64
2021/04/19 00:31:49;;;;;;;9.98;5.55;;;;;;;18.57;49.25;101647.25;487413;28;874;-64
2021/04/19 00:32:04;;;;;;;8.77;5.40;;;;;;;18.59;49.08;101652.50;487550;28;895;-64
2021/04/19 00:32:18;;;;;;;8.00;4.90;;;;;;;18.59;49.34;101644.38;487406;28;953;-64
2021/04/19 00:32:33;;;;;;;8.83;5.10;;;;;;;18.58;49.20;101643.53;487471;28;830;-64
2021/04/19 00:32:48;;;;;;;8.70;5.20;;;;;;;18.59;48.91;101645.25;487386;28;929;-64
2021/04/19 00:33:02;;;;;;;9.02;5.30;;;;;;;18.59;49.29;101647.09;487575;28;925;-64
2021/04/19 00:33:17;;;;;;;9.40;5.40;;;;;;;18.58;49.04;101646.25;487503;28;910;-64
2021/04/19 00:33:32;;;;;;;9.75;5.28;;;;;;;18.58;49.12;101645.38;487481;28;969;-64
2021/04/19 00:33:46;;;;;;;9.77;5.35;;;;;;;18.59;49.09;101647.09;487357;28;1906;-64
2021/04/19 00:34:02;;;;;;;9.77;5.40;;;;;;;18.59;49.28;101644.38;487354;28;905;-64
2021/04/19 00:34:17;;;;;;;9.63;5.38;;;;;;;18.57;49.14;101643.69;487280;28;882;-64
2021/04/19 00:34:31;;;;;;;9.48;5.35;;;;;;;18.58;49.17;101646.25;487312;28;823;-64
2021/04/19 00:34:46;;;;;;;9.50;5.40;;;;;;;18.57;49.34;101639.13;487314;28;1025;-64
2021/04/19 00:35:02;;;;;;;9.13;5.30;;;;;;;18.59;49.03;101644.38;487376;28;933;-64
2021/04/19 00:35:17;;;;;;;8.05;5.00;;;;;;;18.58;49.32;101640.81;487269;28;993;-64
2021/04/19 00:35:32;;;;;;;8.48;4.78;;;;;;;18.58;49.21;101643.53;487362;28;941;-64
2021/04/19 00:35:46;;;;;;;9.88;4.95;;;;;;;18.57;49.24;101639.13;487201;28;953;-64
2021/04/19 00:36:01;;;;;;;9.75;5.25;;;;;;;18.58;49.05;101637.25;487432;28;929;-64
2021/04/19 00:36:15;;;;;;;9.27;5.20;;;;;;;18.58;49.06;101642.69;487291;28;1013;-64
2021/04/19 00:36:31;;;;;;;9.75;5.03;;;;;;;18.57;49.13;101643.69;489232;28;909;-64
2021/04/19 00:36:45;;;;;;;9.05;5.00;;;;;;;18.58;48.94;101639.97;489380;28;889;-64
2021/04/19 00:37:00;;;;;;;7.82;5.00;;;;;;;18.57;49.39;101638.28;489438;28;914;-64
2021/04/19 00:37:14;;;;;;;8.20;4.97;;;;;;;18.57;49.07;101640.97;489116;28;981;-64
2021/04/19 00:37:28;;;;;;;8.37;4.97;;;;;;;18.57;49.14;101652.69;489365;28;807;-64
2021/04/19 00:37:43;;;;;;;8.23;5.03;;;;;;;18.57;49.22;101641.84;489368;28;819;-64
2021/04/19 00:37:57;;;;;;;9.13;5.20;;;;;;;18.57;49.25;101641.84;489092;28;878;-64
2021/04/19 00:38:12;;;;;;;9.88;5.22;;;;;;;18.58;49.09;101642.69;489427;28;846;-64
2021/04/19 00:38:26;;;;;;;9.93;5.20;;;;;;;18.57;49.08;101638.28;489361;28;826;-64
2021/04/19 00:38:40;;;;;;;10.00;5.27;;;;;;;18.56;48.98;101640.13;489008;28;993;-64
2021/04/19 00:38:55;;;;;;;9.02;5.10;;;;;;;18.56;49.11;101637.44;489206;28;854;-64
2021/04/19 00:39:09;;;;;;;7.57;4.97;;;;;;;18.56;49.32;101642.00;489167;28;934;-64
2021/04/19 00:39:23;;;;;;;8.20;5.10;;;;;;;18.56;49.11;101640.13;489186;28;807;-64
2021/04/19 00:39:38;;;;;;;9.60;5.40;;;;;;;18.57;49.39;101649.97;489005;28;949;-64
2021/04/19 00:39:53;;;;;;;8.95;5.20;;;;;;;18.56;49.42;101640.13;489054;28;882;-64
2021/04/19 00:40:11;;;;;;;8.13;5.10;;;;;;;18.56;49.40;101634.72;489161;28;898;-64
2021/04/19 00:40:25;;;;;;;8.50;5.15;;;;;;;18.57;49.50;101640.97;487438;28;41755;-64
2021/04/19 00:40:41;;;;;;;8.47;5.10;;;;;;;18.57;49.39;101640.97;489162;28;973;-64
2021/04/19 00:40:57;;;;;;;7.78;5.00;;;;;;;18.56;49.01;101639.28;489219;28;993;-64
2021/04/19 00:41:12;;;;;;;8.63;5.32;;;;;;;18.56;49.23;101645.56;489370;28;854;-64
2021/04/19 00:41:27;;;;;;;9.85;5.57;;;;;;;18.54;49.22;101638.59;489179;28;1008;-64
2021/04/19 00:41:43;;;;;;;9.40;5.40;;;;;;;18.56;49.51;101648.28;489405;28;921;-64
2021/04/19 00:41:58;;;;;;;8.38;4.95;;;;;;;18.56;49.13;101636.56;489140;28;969;-64
2021/04/19 00:42:12;;;;;;;8.98;5.07;;;;;;;18.55;49.37;101638.44;489213;28;937;-64
2021/04/19 00:42:27;;;;;;;9.40;5.33;;;;;;;18.55;49.33;101638.44;489323;28;968;-64
2021/04/19 00:42:43;;;;;;;8.40;5.20;;;;;;;18.55;49.31;101641.16;489452;28;869;-64
2021/04/19 00:42:58;;;;;;;7.75;5.07;;;;;;;18.56;49.49;101642.84;489144;28;861;-64
2021/04/19 00:43:12;;;;;;;8.50;5.20;;;;;;;18.55;49.48;101640.31;489437;28;906;-64
2021/04/19 00:43:28;;;;;;;9.37;5.30;;;;;;;18.56;49.42;101642.00;489250;28;1021;-64
2021/04/19 00:43:42;;;;;;;8.88;5.15;;;;;;;18.55;49.43;101637.59;489204;28;972;-64
2021/04/19 00:43:57;;;;;;;8.38;5.00;;;;;;;18.54;49.42;101635.88;489231;28;866;-64
2021/04/19 00:44:12;;;;;;;8.37;5.17;;;;;;;18.54;49.50;101636.75;489336;28;877;-64
2021/04/19 00:44:27;;;;;;;8.15;5.30;;;;;;;18.56;49.24;101642.00;489380;28;830;-64
2021/04/19 00:44:44;;;;;;;8.27;5.20;;;;;;;18.54;49.07;101638.59;489100;28;987;-64
2021/04/19 00:44:58;;;;;;;8.55;5.20;;;;;;;18.54;48.96;101639.44;489365;28;980;-63
2021/04/19 00:45:14;;;;;;;9.53;5.00;;;;;;;18.54;49.17;101633.19;489458;28;879;-64
2021/04/19 00:45:29;;;;;;;9.20;4.90;;;;;;;18.54;49.01;101636.75;489119;28;1040;-64
2021/04/19 00:45:44;;;;;;;8.00;5.10;;;;;;;18.54;48.91;101635.88;489419;28;894;-64
2021/04/19 00:46:02;;;;;;;8.52;5.10;;;;;;;18.53;48.91;101635.03;488999;28;937;-64
2021/04/19 00:46:17;;;;;;;9.13;5.25;;;;;;;18.54;49.07;101638.59;487617;28;43751;-64
2021/04/19 00:46:32;;;;;;;8.25;5.03;;;;;;;18.54;49.37;101630.47;489364;28;1009;-64
2021/04/19 00:46:48;;;;;;;7.00;4.80;;;;;;;18.54;49.51;101634.03;489264;28;1244;-64
2021/04/19 00:47:02;;;;;;;8.13;5.28;;;;;;;18.55;49.38;101634.88;489198;28;893;-64
2021/04/19 00:47:16;;;;;;;8.00;5.25;;;;;;;18.54;49.47;101635.88;489310;28;993;-64
2021/04/19 00:47:31;;;;;;;7.53;5.00;;;;;;;18.54;49.22;101635.88;489401;28;818;-64
2021/04/19 00:47:46;;;;;;;7.57;4.93;;;;;;;18.55;49.24;101637.59;489357;28;913;-64
2021/04/19 00:48:02;;;;;;;8.20;5.10;;;;;;;18.55;49.51;101637.59;487400;28;870;-64
2021/04/19 00:48:18;;;;;;;8.77;5.20;;;;;;;18.52;49.26;101633.34;487397;28;949;-64
2021/04/19 00:48:35;;;;;;;8.60;5.28;;;;;;;18.54;49.67;101638.59;487338;28;1010;-64
2021/04/19 00:48:49;;;;;;;9.30;5.20;;;;;;;18.53;49.67;101629.63;489329;28;834;-64
2021/04/19 00:49:04;;;;;;;8.80;5.07;;;;;;;18.53;49.41;101632.34;489445;28;1025;-64
2021/04/19 00:49:19;;;;;;;7.68;5.03;;;;;;;18.53;49.48;101629.63;489386;28;882;-64
2021/04/19 00:49:33;;;;;;;7.63;4.93;;;;;;;18.53;49.45;101632.34;489091;28;969;-64
2021/04/19 00:49:47;;;;;;;8.40;5.10;;;;;;;18.54;49.38;101635.88;489315;28;902;-64
2021/04/19 00:50:05;;;;;;;8.87;5.23;;;;;;;18.53;49.51;101636.91;489369;28;889;-64
2021/04/19 00:50:26;;;;;;;9.05;5.07;;;;;;;18.52;49.76;101636.06;488402;28;18734;-64
2021/04/19 00:50:40;;;;;;;7.75;4.88;;;;;;;18.53;49.59;101634.19;486935;28;64674;-64
2021/04/19 00:50:55;;;;;;;8.77;5.20;;;;;;;18.52;49.12;101629.78;489291;28;1178;-64
2021/04/19 00:51:10;;;;;;;9.32;5.47;;;;;;;18.52;49.53;101637.94;489167;28;922;-64
2021/04/19 00:51:24;;;;;;;9.10;5.30;;;;;;;18.52;49.26;101633.34;489306;28;894;-64
2021/04/19 00:51:39;;;;;;;9.70;5.30;;;;;;;18.53;49.16;101643.19;489338;28;909;-64
2021/04/19 00:51:55;;;;;;;9.30;5.32;;;;;;;18.52;49.47;101627.94;489074;28;882;-64
2021/04/19 00:52:10;;;;;;;8.32;4.90;;;;;;;18.52;49.30;101633.34;489347;28;1021;-64
2021/04/19 00:52:25;;;;;;;9.65;4.85;;;;;;;18.52;49.51;101640.63;489300;28;862;-64
2021/04/19 00:52:39;;;;;;;9.52;5.10;;;;;;;18.52;49.44;101632.50;489299;28;798;-64
2021/04/19 00:52:54;;;;;;;8.65;5.22;;;;;;;18.53;49.42;101637.75;489177;28;905;-64
2021/04/19 00:53:10;;;;;;;9.07;5.13;;;;;;;18.52;49.16;101635.22;489178;28;878;-63
2021/04/19 00:53:25;;;;;;;8.80;5.30;;;;;;;18.51;49.14;101639.78;488847;28;890;-64
2021/04/19 00:53:40;;;;;;;8.23;5.35;;;;;;;18.52;49.21;101633.34;488911;28;1967;-64
2021/04/19 00:53:55;;;;;;;7.97;5.18;;;;;;;18.52;49.51;101633.34;489046;28;934;-64
2021/04/19 00:54:11;;;;;;;8.43;4.90;;;;;;;18.52;49.29;101629.78;489242;28;1095;-64
2021/04/19 00:54:26;;;;;;;8.23;4.80;;;;;;;18.52;49.48;101632.50;488924;28;855;-64
2021/04/19 00:54:40;;;;;;;8.48;4.70;;;;;;;18.52;49.74;101627.94;489238;28;934;-64
2021/04/19 00:54:58;;;;;;;8.45;4.78;;;;;;;18.52;49.50;101632.50;489085;28;850;-64
2021/04/19 00:55:14;;;;;;;8.07;5.07;;;;;;;18.52;49.31;101632.50;489194;28;1029;-64
2021/04/19 00:55:30;;;;;;;8.40;5.20;;;;;;;18.50;49.41;101627.25;489373;28;929;-64
2021/04/19 00:55:44;;;;;;;7.55;4.97;;;;;;;18.50;49.70;101624.53;489337;28;914;-64
2021/04/19 00:55:59;;;;;;;7.82;5.10;;;;;;;18.50;49.24;101628.09;489096;28;913;-64
2021/04/19 00:56:14;;;;;;;9.00;5.27;;;;;;;18.50;49.37;101628.09;489351;28;973;-64
2021/04/19 00:56:28;;;;;;;8.90;5.20;;;;;;;18.50;49.25;101638.94;489289;28;949;-64
2021/04/19 00:56:46;;;;;;;9.30;5.30;;;;;;;18.50;49.02;101638.94;489269;28;917;-64
2021/04/19 00:57:00;;;;;;;9.25;5.25;;;;;;;18.50;48.90;101633.53;489085;28;862;-64
2021/04/19 00:57:14;;;;;;;7.63;4.88;;;;;;;18.50;49.06;101630.81;489314;28;913;-64
2021/04/19 00:57:30;;;;;;;7.73;5.07;;;;;;;18.50;49.12;101629.97;489440;28;989;-64
2021/04/19 00:57:45;;;;;;;7.55;5.00;;;;;;;18.50;48.82;101635.38;489102;28;949;-64
2021/04/19 00:58:00;;;;;;;7.65;4.85;;;;;;;18.50;48.89;101638.94;489341;28;977;-64
2021/04/19 00:58:17;;;;;;;8.83;5.20;;;;;;;18.50;49.15;101638.09;489310;28;885;-64
2021/04/19 00:58:36;;;;;;;8.27;5.03;;;;;;;18.50;49.07;101638.94;488486;28;19607;-64
2021/04/19 00:58:51;;;;;;;8.77;5.18;;;;;;;18.49;49.21;101631.81;487899;28;43077;-64
2021/04/19 00:59:05;;;;;;;8.97;5.13;;;;;;;18.49;49.39;101631.81;489328;28;962;-64
2021/04/19 00:59:20;;;;;;;7.50;4.90;;;;;;;18.50;49.59;101638.09;489173;28;862;-64
2021/04/19 00:59:34;;;;;;;7.63;5.10;;;;;;;18.50;49.51;101627.25;489362;28;925;-64
2021/04/19 00:59:49;;;;;;;8.03;5.33;;;;;;;18.50;49.14;101640.81;488976;28;969;-64
2021/04/19 01:00:11;;;;;;;8.43;5.40;;;;;;;18.50;49.05;101638.94;489225;28;982;-64
2021/04/19 01:00:31;;;;;;;9.00;5.15;;;;;;;18.49;49.32;101636.41;486075;28;89648;-64
2021/04/19 01:00:46;;;;;;;9.18;5.22;;;;;;;18.50;49.51;101630.81;486563;28;65632;-64
2021/04/19 01:01:01;;;;;;;8.50;5.10;;;;;;;18.51;49.59;101634.38;488867;28;917;-64
2021/04/19 01:01:16;;;;;;;8.38;5.15;;;;;;;18.50;49.48;101628.09;489135;28;950;-64
2021/04/19 01:01:32;;;;;;;8.93;5.10;;;;;;;18.50;49.33;101629.97;489257;28;973;-64
2021/04/19 01:01:47;;;;;;;8.43;4.80;;;;;;;18.50;49.66;101638.94;488943;28;837;-64
2021/04/19 01:02:03;;;;;;;7.30;4.72;;;;;;;18.51;49.37;101628.94;489306;28;1920;-64
2021/04/19 01:02:17;;;;;;;7.97;5.05;;;;;;;18.50;49.28;101629.97;489355;28;1009;-64
2021/04/19 01:02:32;;;;;;;9.00;5.30;;;;;;;18.48;49.70;101638.25;489391;28;795;-64
2021/04/19 01:02:46;;;;;;;8.75;5.20;;;;;;;18.49;49.39;101637.25;489047;28;890;-64
2021/04/19 01:03:01;;;;;;;8.70;5.30;;;;;;;18.49;49.35;101631.81;489372;28;876;-64
2021/04/19 01:03:15;;;;;;;8.50;5.53;;;;;;;18.49;49.17;101637.25;489349;28;997;-64
2021/04/19 01:03:31;;;;;;;8.45;5.22;;;;;;;18.48;48.94;101640.97;489216;28;834;-64
2021/04/19 01:03:45;;;;;;;8.55;5.00;;;;;;;18.49;48.79;101637.25;489205;28;896;-64
2021/04/19 01:04:00;;;;;;;8.13;5.18;;;;;;;18.48;49.37;101640.97;489298;28;906;-64
2021/04/19 01:04:15;;;;;;;8.17;5.27;;;;;;;18.49;49.46;101633.69;489136;28;1052;-64
2021/04/19 01:04:29;;;;;;;8.45;5.25;;;;;;;18.49;49.49;101637.25;489392;28;826;-64
2021/04/19 01:04:44;;;;;;;7.95;5.10;;;;;;;18.49;49.24;101639.97;489232;28;811;-64
2021/04/19 01:04:59;;;;;;;7.57;5.03;;;;;;;18.49;49.60;101630.97;489312;28;819;-64
2021/04/19 01:05:17;;;;;;;7.60;4.97;;;;;;;18.49;49.53;101631.81;489128;28;1056;-64
2021/04/19 01:05:37;;;;;;;10.02;5.15;;;;;;;18.49;48.83;101644.53;488620;28;19208;-64
2021/04/19 01:05:52;;;;;;;9.80;5.50;;;;;;;18.49;49.07;101639.09;486760;28;65969;-64
2021/04/19 01:06:08;;;;;;;8.82;5.20;;;;;;;18.49;49.43;101633.69;489328;28;937;-64
2021/04/19 01:06:22;;;;;;;8.00;4.88;;;;;;;18.49;49.68;101634.53;489340;28;831;-64
2021/04/19 01:06:37;;;;;;;7.63;4.90;;;;;;;18.49;49.53;101637.25;489407;28;1100;-64
2021/04/19 01:06:53;;;;;;;8.37;4.90;;;;;;;18.50;49.43;101638.09;488977;28;973;-64
2021/04/19 01:07:07;;;;;;;9.90;5.30;;;;;;;18.48;49.32;101635.53;489349;28;958;-64
2021/04/19 01:07:22;;;;;;;9.10;5.33;;;;;;;18.47;49.41;101633.84;489361;28;917;-64
2021/04/19 01:07:36;;;;;;;8.47;5.10;;;;;;;18.49;49.19;101639.09;489180;28;989;-64
2021/04/19 01:07:51;;;;;;;9.05;5.35;;;;;;;18.48;49.39;101630.13;489155;28;854;-64
2021/04/19 01:08:09;;;;;;;8.70;5.25;;;;;;;18.47;49.66;101633.84;489289;28;842;-64
2021/04/19 01:08:24;;;;;;;7.60;4.82;;;;;;;18.48;49.46;101635.53;488117;28;19507;-64
2021/04/19 01:08:39;;;;;;;7.57;4.90;;;;;;;18.48;49.38;101635.53;489346;28;882;-64
2021/04/19 01:08:53;;;;;;;8.13;5.18;;;;;;;18.47;49.29;101633.00;489246;28;889;-64
2021/04/19 01:09:08;;;;;;;8.83;5.40;;;;;;;18.49;49.30;101641.81;489111;28;787;-64
2021/04/19 01:09:23;;;;;;;8.23;5.30;;;;;;;18.49;49.61;101649.94;489283;28;916;-64
2021/04/19 01:09:37;;;;;;;7.05;5.00;;;;;;;18.48;49.38;101643.69;489413;28;997;-64
2021/04/19 01:09:52;;;;;;;8.07;5.10;;;;;;;18.49;49.44;101653.50;489158;28;861;-64
2021/04/19 01:10:07;;;;;;;8.57;5.23;;;;;;;18.48;49.43;101640.13;489112;28;807;-64
2021/04/19 01:10:21;;;;;;;8.10;5.30;;;;;;;18.48;49.37;101643.69;489330;28;838;-64
2021/04/19 01:10:37;;;;;;;7.60;4.77;;;;;;;18.48;49.61;101640.97;489333;28;1048;-64
2021/04/19 01:10:51;;;;;;;7.10;4.60;;;;;;;18.49;49.29;101652.66;489084;28;1009;-64
2021/04/19 01:11:05;;;;;;;8.60;4.93;;;;;;;18.48;49.22;101643.69;489228;28;917;-64
2021/04/19 01:11:20;;;;;;;9.02;5.35;;;;;;;18.48;49.50;101638.25;489319;28;956;-64
2021/04/19 01:11:34;;;;;;;8.50;5.50;;;;;;;18.48;49.40;101646.38;489224;28;848;-64
2021/04/19 01:11:49;;;;;;;9.63;5.70;;;;;;;18.48;49.22;101646.38;487071;28;1270;-64